Time;durP1;ratioP1;P1;durP2;ratioP2;P2;SDS_P1;SDS_P2;PMS_P1;PMS_P2;Temp;Humidity;BMP_temperature;BMP_pressure;BME280_temperature;BME280_humidity;BME280_pressure;Samples;Min_cycle;Max_cycle;Signal;HPM_P1;HPM_P2
2021/09/16 00:01:30;;;;;;;1.70;1.55;;;;;;;7.16;70.63;98999.50;5092143;28;20455;-60
2021/09/16 00:03:56;;;;;;;2.03;1.55;;;;;;;7.13;70.41;98995.47;5073899;28;20047;-59
2021/09/16 00:06:21;;;;;;;1.65;1.55;;;;;;;7.19;70.37;99004.31;5091876;28;20047;-60
2021/09/16 00:08:47;;;;;;;3.28;1.70;;;;;;;7.13;70.98;99010.50;5092069;28;20040;-59
2021/09/16 00:11:13;;;;;;;1.50;1.40;;;;;;;7.20;70.32;99000.66;5092026;28;20093;-60
2021/09/16 00:13:39;;;;;;;2.63;1.60;;;;;;;7.18;70.42;99002.72;5091799;28;20467;-59
2021/09/16 00:16:05;;;;;;;1.70;1.58;;;;;;;7.16;70.66;99010.03;5092114;28;20448;-60
2021/09/16 00:18:31;;;;;;;2.15;1.73;;;;;;;7.20;71.15;99013.81;5091772;28;20040;-59
2021/09/16 00:20:57;;;;;;;1.83;1.50;;;;;;;7.13;71.29;99015.75;5091806;28;20067;-61
2021/09/16 00:23:22;;;;;;;1.50;1.40;;;;;;;7.15;71.06;99021.63;5091978;28;20035;-60
2021/09/16 00:26:02;;;;;;;2.50;1.98;;;;;;;7.07;71.50;99014.03;5091781;28;20501;-61
2021/09/16 00:28:28;;;;;;;2.50;1.73;;;;;;;6.98;71.86;99006.41;5091706;28;20097;-60
2021/09/16 00:30:54;;;;;;;3.38;1.65;;;;;;;7.04;71.44;99018.69;5091945;28;20421;-60
2021/09/16 00:33:20;;;;;;;2.15;1.80;;;;;;;7.04;71.71;99023.19;5090356;28;20036;-59
2021/09/16 00:35:45;;;;;;;2.00;1.80;;;;;;;7.00;71.98;99028.09;5091625;28;20056;-61
2021/09/16 00:38:12;;;;;;;3.45;1.90;;;;;;;6.98;72.08;99031.97;5091663;28;20043;-60
2021/09/16 00:40:37;;;;;;;2.20;1.90;;;;;;;6.95;72.05;99029.78;5091486;28;20446;-59
2021/09/16 00:43:03;;;;;;;1.98;1.70;;;;;;;6.91;72.01;99029.44;5091414;28;20087;-59
2021/09/16 00:45:34;;;;;;;2.97;1.67;;;;;;;6.94;71.58;99038.69;5091419;28;20040;-60
2021/09/16 00:48:00;;;;;;;2.72;2.03;;;;;;;6.98;71.77;99034.59;5090080;28;20048;-59
2021/09/16 00:50:25;;;;;;;2.47;1.92;;;;;;;7.04;71.53;99039.00;5091498;28;20386;-60
2021/09/16 00:52:53;;;;;;;2.97;2.10;;;;;;;7.01;71.46;99049.97;5091195;28;20386;-59
2021/09/16 00:55:20;;;;;;;3.53;2.13;;;;;;;6.97;71.56;99047.00;5090062;28;20048;-58
2021/09/16 00:57:52;;;;;;;4.63;2.25;;;;;;;6.99;71.95;99055.47;5091459;28;20086;-57
2021/09/16 01:00:19;;;;;;;4.40;2.50;;;;;;;6.88;71.97;99045.66;5056648;28;20044;-59
2021/09/16 01:02:45;;;;;;;3.05;2.10;;;;;;;6.88;71.49;99056.19;5091133;28;20043;-59
2021/09/16 01:05:11;;;;;;;3.33;2.45;;;;;;;6.97;71.18;99061.97;5091532;28;20093;-61
2021/09/16 01:07:39;;;;;;;2.60;2.10;;;;;;;6.97;71.57;99062.78;5090921;28;20127;-59
2021/09/16 01:10:07;;;;;;;2.45;1.90;;;;;;;6.85;71.94;99055.84;5089919;28;20126;-58
2021/09/16 01:12:33;;;;;;;3.83;2.20;;;;;;;6.83;71.79;99062.16;5091112;28;20040;-59
2021/09/16 01:14:59;;;;;;;4.53;2.30;;;;;;;6.81;71.33;99050.22;5091067;28;20151;-58
2021/09/16 01:17:25;;;;;;;3.03;1.83;;;;;;;6.79;71.28;99070.69;5092399;28;20123;-59
2021/09/16 01:19:51;;;;;;;2.13;1.90;;;;;;;6.79;70.82;99068.88;5095467;28;20508;-59
2021/09/16 01:22:21;;;;;;;2.92;2.00;;;;;;;6.79;71.17;99063.63;5095451;28;20048;-59
2021/09/16 01:24:47;;;;;;;3.30;2.13;;;;;;;6.80;71.30;99064.41;5095547;28;20048;-60
2021/09/16 01:27:13;;;;;;;3.30;2.53;;;;;;;6.72;71.38;99076.03;5094098;28;20393;-60
2021/09/16 01:29:39;;;;;;;2.47;2.28;;;;;;;6.73;70.81;99068.94;5095517;28;20044;-60
2021/09/16 01:32:06;;;;;;;2.55;2.20;;;;;;;6.80;71.05;99070.50;5093711;28;20048;-60
2021/09/16 01:34:32;;;;;;;3.97;1.77;;;;;;;6.86;70.72;99068.81;5093913;28;20416;-58
2021/09/16 01:36:59;;;;;;;2.70;2.20;;;;;;;6.89;70.66;99063.09;5076583;28;20557;-60
2021/09/16 01:39:25;;;;;;;3.42;2.10;;;;;;;6.91;70.87;99061.06;5095176;28;20073;-60
2021/09/16 01:41:51;;;;;;;3.17;2.58;;;;;;;6.97;70.53;99062.78;5093463;28;20112;-59
2021/09/16 01:44:18;;;;;;;2.13;1.92;;;;;;;7.02;70.07;99062.91;5095105;28;20473;-59
2021/09/16 01:46:44;;;;;;;3.50;2.33;;;;;;;7.08;70.62;99063.06;5093410;28;20087;-60
2021/09/16 01:49:10;;;;;;;2.20;2.00;;;;;;;7.01;70.67;99073.69;5094968;28;20071;-60
2021/09/16 01:51:36;;;;;;;2.28;1.80;;;;;;;6.97;71.19;99070.69;5094838;28;20207;-60
2021/09/16 01:54:03;;;;;;;2.10;1.90;;;;;;;7.02;71.13;99078.72;5094894;28;20155;-59
2021/09/16 01:56:29;;;;;;;3.15;2.15;;;;;;;7.04;71.46;99079.31;5094491;28;20090;-60
2021/09/16 01:58:55;;;;;;;2.45;2.25;;;;;;;7.09;71.63;99083.09;5094802;28;20043;-59
2021/09/16 02:01:21;;;;;;;3.20;2.30;;;;;;;7.07;71.86;99074.63;5093492;28;20048;-59
2021/09/16 02:03:48;;;;;;;2.28;2.08;;;;;;;7.08;72.25;99078.88;5093100;28;20042;-59
2021/09/16 02:06:14;;;;;;;3.53;2.08;;;;;;;7.10;71.64;99082.91;5094605;28;20117;-60
2021/09/16 02:08:40;;;;;;;2.75;2.03;;;;;;;7.03;72.38;99090.09;5094545;28;20040;-60
2021/09/16 02:11:06;;;;;;;3.05;1.85;;;;;;;7.02;72.24;99085.84;5094297;28;20055;-58
2021/09/16 02:13:32;;;;;;;2.35;2.03;;;;;;;7.06;72.26;99092.28;5092900;28;20056;-59
2021/09/16 02:15:58;;;;;;;2.45;1.90;;;;;;;7.13;72.14;99094.84;5094473;28;20492;-60
2021/09/16 02:18:24;;;;;;;3.65;2.03;;;;;;;7.12;72.74;99096.69;5094011;28;20051;-59
2021/09/16 02:20:49;;;;;;;3.10;2.10;;;;;;;7.07;72.81;99106.28;5094052;28;20093;-59
2021/09/16 02:23:15;;;;;;;4.85;2.70;;;;;;;7.04;73.16;99102.25;5094008;28;20043;-60
2021/09/16 02:25:41;;;;;;;2.42;2.20;;;;;;;6.99;73.40;99107.34;5094225;28;20048;-60
2021/09/16 02:28:07;;;;;;;4.25;1.92;;;;;;;6.99;73.73;99110.00;5092423;28;20497;-59
2021/09/16 02:30:33;;;;;;;2.90;2.15;;;;;;;7.00;73.91;99108.97;5092865;28;20036;-60
2021/09/16 02:33:00;;;;;;;3.15;2.20;;;;;;;7.00;74.20;99104.53;5094015;28;20047;-59
2021/09/16 02:35:26;;;;;;;2.72;2.38;;;;;;;7.00;74.34;99111.59;5094048;28;20051;-60
2021/09/16 02:37:52;;;;;;;2.72;2.20;;;;;;;6.95;75.38;99107.00;5092253;28;20048;-59
2021/09/16 02:40:18;;;;;;;3.20;2.20;;;;;;;6.85;76.42;99119.88;5093700;28;20055;-60
2021/09/16 02:42:43;;;;;;;4.88;2.38;;;;;;;6.86;77.22;99116.22;5092332;28;20040;-58
2021/09/16 02:45:10;;;;;;;3.20;2.10;;;;;;;6.91;77.42;99113.75;5094007;28;20093;-61
2021/09/16 02:47:35;;;;;;;2.75;2.33;;;;;;;6.92;77.38;99117.97;5093753;28;20067;-60
2021/09/16 02:50:01;;;;;;;4.25;2.83;;;;;;;6.90;77.79;99122.66;5094009;28;20477;-59
2021/09/16 02:52:27;;;;;;;4.03;2.70;;;;;;;6.90;78.74;99125.28;5093440;28;20044;-59
2021/09/16 02:54:52;;;;;;;2.60;2.22;;;;;;;6.92;78.33;99122.44;5093842;28;20036;-58
2021/09/16 02:57:18;;;;;;;3.45;2.50;;;;;;;6.96;78.54;99124.41;5093442;28;20127;-59
2021/09/16 02:59:44;;;;;;;5.65;2.95;;;;;;;6.95;78.70;99122.81;5093689;28;20051;-59
2021/09/16 03:02:10;;;;;;;3.78;2.58;;;;;;;6.94;79.16;99128.28;5093462;28;20078;-59
2021/09/16 03:04:36;;;;;;;3.65;2.70;;;;;;;6.93;79.41;99129.31;5093493;28;20071;-60
2021/09/16 03:07:02;;;;;;;4.65;2.65;;;;;;;6.92;79.59;99128.53;5093357;28;20079;-60
2021/09/16 03:09:27;;;;;;;3.60;2.65;;;;;;;6.96;79.74;99134.94;5093487;28;20101;-59
2021/09/16 03:11:54;;;;;;;3.00;2.65;;;;;;;7.01;79.36;99136.94;5092129;28;20072;-59
2021/09/16 03:14:20;;;;;;;3.33;2.72;;;;;;;7.05;79.42;99140.72;5092742;28;20080;-59
2021/09/16 03:16:46;;;;;;;3.30;2.78;;;;;;;7.08;79.61;99147.41;5092711;28;20229;-61
2021/09/16 03:19:11;;;;;;;3.30;2.70;;;;;;;7.07;79.16;99132.63;5074223;28;20036;-60
2021/09/16 03:21:37;;;;;;;4.97;2.90;;;;;;;7.05;79.77;99140.72;5093098;28;20059;-60
2021/09/16 03:24:03;;;;;;;3.65;2.55;;;;;;;7.08;79.75;99150.03;5093049;28;20443;-59
2021/09/16 03:26:29;;;;;;;2.70;2.22;;;;;;;7.12;79.72;99146.75;5092733;28;20497;-59
2021/09/16 03:28:55;;;;;;;3.85;2.50;;;;;;;7.12;79.62;99146.75;5093007;28;20040;-60
2021/09/16 03:31:21;;;;;;;3.13;2.30;;;;;;;7.07;79.82;99151.06;5092604;28;20036;-59
2021/09/16 03:33:46;;;;;;;5.38;2.45;;;;;;;7.09;79.73;99146.38;5092748;28;20393;-59
2021/09/16 03:36:12;;;;;;;3.40;2.50;;;;;;;7.07;79.77;99153.72;5092599;28;20036;-60
2021/09/16 03:38:38;;;;;;;4.40;2.80;;;;;;;7.05;79.86;99154.72;5092520;28;20059;-59
2021/09/16 03:41:04;;;;;;;3.72;2.28;;;;;;;7.08;79.75;99155.31;5092281;28;20039;-62
2021/09/16 03:43:29;;;;;;;4.20;2.80;;;;;;;7.07;80.02;99165.06;5092363;28;20047;-60
2021/09/16 03:45:55;;;;;;;4.63;2.67;;;;;;;7.09;80.24;99167.44;5092559;28;20089;-60
2021/09/16 03:48:21;;;;;;;4.70;2.53;;;;;;;7.04;80.42;99168.13;5092197;28;20653;-60
2021/09/16 03:50:47;;;;;;;4.30;2.75;;;;;;;6.95;80.73;99164.97;5092507;28;20717;-61
2021/09/16 03:53:13;;;;;;;3.58;2.90;;;;;;;7.02;80.57;99170.97;5092467;28;20483;-59
2021/09/16 03:55:39;;;;;;;4.35;3.00;;;;;;;7.02;81.16;99178.06;5092201;28;20069;-59
2021/09/16 03:58:05;;;;;;;3.70;2.65;;;;;;;7.03;81.24;99177.88;5090714;28;20494;-59
2021/09/16 04:00:31;;;;;;;4.05;2.10;;;;;;;7.03;81.10;99185.78;5092088;28;20127;-60
2021/09/16 04:02:57;;;;;;;3.45;2.40;;;;;;;7.04;81.53;99190.00;5090769;28;20145;-59
2021/09/16 04:05:22;;;;;;;3.85;2.47;;;;;;;7.11;81.40;99186.50;5090638;28;20535;-61
2021/09/16 04:07:48;;;;;;;3.22;2.53;;;;;;;7.05;81.60;99198.72;5090433;28;20044;-61
2021/09/16 04:10:14;;;;;;;3.92;2.10;;;;;;;7.01;82.00;99198.34;5092136;28;20413;-62
2021/09/16 04:12:40;;;;;;;3.28;2.00;;;;;;;6.99;82.02;99194.31;5092073;28;20473;-58
2021/09/16 04:15:07;;;;;;;3.88;2.40;;;;;;;7.00;82.17;99198.56;5091643;28;20485;-58
2021/09/16 04:17:33;;;;;;;3.72;2.15;;;;;;;6.99;82.22;99204.88;5091517;28;20425;-59
2021/09/16 04:19:58;;;;;;;3.95;2.30;;;;;;;7.04;82.32;99205.81;5092140;28;20036;-58
2021/09/16 04:22:25;;;;;;;3.22;2.20;;;;;;;7.04;81.92;99211.09;5091547;28;20076;-60
2021/09/16 04:24:51;;;;;;;4.55;2.40;;;;;;;7.13;82.55;99208.19;5092133;28;20447;-59
2021/09/16 04:27:17;;;;;;;3.10;1.90;;;;;;;7.14;81.90;99210.59;5091544;28;20458;-58
2021/09/16 04:29:43;;;;;;;3.75;2.42;;;;;;;7.21;82.46;99210.53;5091986;28;20126;-59
2021/09/16 04:32:09;;;;;;;3.67;2.00;;;;;;;7.21;81.65;99213.97;5091804;28;20044;-59
2021/09/16 04:34:35;;;;;;;2.45;1.65;;;;;;;7.27;81.89;99212.28;5091418;28;20531;-59
2021/09/16 04:37:01;;;;;;;3.28;2.13;;;;;;;7.27;81.97;99207.81;5091572;28;20044;-58
2021/09/16 04:39:27;;;;;;;3.78;2.30;;;;;;;7.35;81.55;99216.44;5091836;28;20415;-59
2021/09/16 04:41:53;;;;;;;2.33;1.73;;;;;;;7.44;81.36;99220.38;5091151;28;20075;-59
2021/09/16 04:44:19;;;;;;;4.35;1.75;;;;;;;7.47;81.43;99217.31;5091680;28;20167;-60
2021/09/16 04:46:45;;;;;;;3.40;2.35;;;;;;;7.53;81.17;99221.72;5089971;28;20052;-59
2021/09/16 04:49:10;;;;;;;2.80;1.92;;;;;;;7.57;80.46;99224.72;5091384;28;20040;-59
2021/09/16 04:51:36;;;;;;;2.90;2.10;;;;;;;7.64;80.23;99228.88;5090679;28;20055;-62
2021/09/16 04:54:02;;;;;;;2.05;1.83;;;;;;;7.68;80.27;99231.91;5091272;28;20036;-59
2021/09/16 04:56:28;;;;;;;2.47;1.80;;;;;;;7.74;80.01;99225.72;5090924;28;20044;-61
2021/09/16 04:58:54;;;;;;;2.75;2.00;;;;;;;7.82;80.09;99235.94;5091367;28;20092;-59
2021/09/16 05:01:20;;;;;;;3.42;1.85;;;;;;;7.90;79.98;99233.00;5091466;28;20044;-61
2021/09/16 05:03:46;;;;;;;2.63;1.98;;;;;;;7.91;79.68;99232.00;5091156;28;20046;-60
2021/09/16 05:06:11;;;;;;;3.75;2.40;;;;;;;8.02;79.42;99238.34;5090187;28;20047;-60
2021/09/16 05:08:37;;;;;;;4.43;2.33;;;;;;;8.02;78.55;99237.53;5089727;28;20118;-60
2021/09/16 05:11:03;;;;;;;2.58;2.17;;;;;;;8.01;79.04;99247.28;5089896;28;20037;-59
2021/09/16 05:13:29;;;;;;;2.85;2.08;;;;;;;7.90;79.54;99250.69;5090645;28;20408;-59
2021/09/16 05:15:55;;;;;;;2.80;1.90;;;;;;;7.92;78.55;99251.28;5091060;28;20044;-59
2021/09/16 05:18:20;;;;;;;2.92;2.25;;;;;;;7.93;79.13;99239.69;5090720;28;20058;-60
2021/09/16 05:20:46;;;;;;;4.03;2.35;;;;;;;7.95;80.24;99248.19;5091134;28;20040;-60
2021/09/16 05:23:12;;;;;;;2.60;2.10;;;;;;;8.00;79.03;99250.97;5090966;28;20560;-59
2021/09/16 05:25:38;;;;;;;4.78;1.80;;;;;;;7.98;79.15;99247.75;5090845;28;20048;-62
2021/09/16 05:28:04;;;;;;;3.00;1.90;;;;;;;8.03;78.83;99255.81;5090855;28;20083;-60
2021/09/16 05:30:29;;;;;;;4.72;2.10;;;;;;;8.03;77.96;99255.81;5091129;28;20037;-60
2021/09/16 05:32:55;;;;;;;3.85;1.73;;;;;;;7.99;78.10;99254.63;5091005;28;20093;-59
2021/09/16 05:35:21;;;;;;;2.42;1.73;;;;;;;7.93;77.23;99243.13;5083260;28;20585;-59
2021/09/16 05:37:47;;;;;;;5.40;1.77;;;;;;;8.01;76.19;99257.84;5069270;28;20441;-60
2021/09/16 05:40:14;;;;;;;2.60;1.70;;;;;;;8.02;76.78;99256.00;5070699;28;20032;-60
2021/09/16 05:42:42;;;;;;;2.63;1.90;;;;;;;8.04;76.60;99254.75;5036080;28;20130;-60
2021/09/16 05:45:09;;;;;;;2.38;1.60;;;;;;;8.11;77.14;99266.03;5070265;28;20086;-60
2021/09/16 05:47:35;;;;;;;3.88;2.00;;;;;;;8.17;76.69;99265.13;5052070;28;20040;-59
2021/09/16 05:50:01;;;;;;;2.30;1.50;;;;;;;8.16;75.34;99268.00;5065975;28;20375;-58
2021/09/16 05:52:26;;;;;;;2.20;1.70;;;;;;;8.19;75.79;99263.06;5067247;28;20080;-58
2021/09/16 05:54:52;;;;;;;2.88;1.73;;;;;;;8.25;76.25;99274.56;5069676;28;20056;-59
2021/09/16 05:57:18;;;;;;;4.25;2.08;;;;;;;8.34;75.85;99270.59;5063392;28;20198;-59
2021/09/16 05:59:44;;;;;;;2.97;1.70;;;;;;;8.31;75.88;99276.31;5068699;28;20123;-60
2021/09/16 06:02:10;;;;;;;3.03;1.98;;;;;;;8.33;76.07;99274.28;5062663;28;20620;-59
2021/09/16 06:04:35;;;;;;;2.35;1.52;;;;;;;8.41;76.16;99273.97;5071314;28;20509;-60
2021/09/16 06:07:04;;;;;;;2.13;1.63;;;;;;;8.37;74.80;99283.34;5071411;28;20041;-59
2021/09/16 06:09:31;;;;;;;2.75;1.52;;;;;;;8.42;75.17;99269.50;5071771;28;20086;-60
2021/09/16 06:11:59;;;;;;;3.17;1.80;;;;;;;8.48;74.16;99270.44;5069935;28;20554;-58
2021/09/16 06:14:25;;;;;;;3.22;1.55;;;;;;;8.54;74.66;99270.34;5054368;28;20458;-59
2021/09/16 06:16:52;;;;;;;3.00;1.65;;;;;;;8.62;74.11;99270.00;5052134;28;20521;-59
2021/09/16 06:19:18;;;;;;;2.67;1.60;;;;;;;8.63;74.38;99276.09;5071505;28;20596;-59
2021/09/16 06:21:44;;;;;;;2.92;1.40;;;;;;;8.73;74.43;99271.03;5069828;28;20048;-57
2021/09/16 06:24:10;;;;;;;2.40;1.33;;;;;;;8.77;74.11;99277.50;5051627;28;20047;-59
2021/09/16 06:26:36;;;;;;;4.03;1.33;;;;;;;8.77;73.90;99284.63;5069137;28;20117;-59
2021/09/16 06:29:02;;;;;;;1.58;1.40;;;;;;;8.62;73.50;99290.34;5054300;28;20478;-58
2021/09/16 06:31:28;;;;;;;1.98;1.33;;;;;;;8.63;74.13;99282.19;5068834;28;20142;-59
2021/09/16 06:33:54;;;;;;;6.32;1.50;;;;;;;8.75;74.11;99282.19;5071771;28;20113;-60
2021/09/16 06:36:19;;;;;;;3.03;1.88;;;;;;;8.87;73.51;99280.38;5070067;28;20043;-61
2021/09/16 06:38:45;;;;;;;1.95;1.67;;;;;;;8.87;73.33;99290.13;5072095;28;20543;-60
2021/09/16 06:41:11;;;;;;;1.67;1.35;;;;;;;8.86;73.22;99288.53;5070308;28;20041;-60
2021/09/16 06:43:37;;;;;;;1.45;1.35;;;;;;;8.98;72.51;99289.34;5071526;28;20525;-61
2021/09/16 06:46:03;;;;;;;4.82;1.42;;;;;;;9.07;71.88;99295.09;5070989;28;20098;-60
2021/09/16 06:48:29;;;;;;;1.30;1.20;;;;;;;9.19;71.04;99289.81;5069376;28;20086;-60
2021/09/16 06:50:56;;;;;;;2.83;1.40;;;;;;;9.29;69.67;99297.97;5052794;28;20045;-60
2021/09/16 06:53:22;;;;;;;1.33;1.15;;;;;;;9.45;70.06;99289.34;5068252;28;20044;-62
2021/09/16 06:55:48;;;;;;;1.80;1.35;;;;;;;9.50;69.49;99291.25;5069122;28;20052;-60
2021/09/16 06:58:14;;;;;;;1.95;1.75;;;;;;;9.50;69.41;99291.25;5069743;28;20044;-59
2021/09/16 07:00:40;;;;;;;1.80;1.50;;;;;;;9.44;68.83;99295.66;5068277;28;20155;-59
2021/09/16 07:03:06;;;;;;;2.42;1.77;;;;;;;9.43;69.09;99299.34;5072132;28;20127;-59
2021/09/16 07:05:33;;;;;;;1.38;1.20;;;;;;;9.44;69.30;99308.91;5074493;28;20050;-58
2021/09/16 07:07:58;;;;;;;1.20;1.10;;;;;;;9.29;69.38;99305.91;5087431;28;20046;-61
2021/09/16 07:10:24;;;;;;;1.60;1.23;;;;;;;9.16;69.90;99322.81;5089049;28;20110;-62
2021/09/16 07:12:51;;;;;;;1.65;1.30;;;;;;;9.23;70.17;99312.91;5055621;28;20456;-60
2021/09/16 07:15:17;;;;;;;1.58;1.20;;;;;;;9.42;69.37;99315.47;5086816;28;20156;-63
2021/09/16 07:17:43;;;;;;;1.42;1.27;;;;;;;9.44;68.89;99313.38;5039160;28;20139;-60
2021/09/16 07:20:10;;;;;;;1.80;1.30;;;;;;;9.38;68.99;99311.66;5090346;28;20131;-59
2021/09/16 07:22:38;;;;;;;2.30;1.30;;;;;;;9.29;70.30;99317.31;5088975;28;20046;-59
2021/09/16 07:25:06;;;;;;;1.30;1.20;;;;;;;9.31;69.01;99315.22;5085923;28;20075;-56
2021/09/16 07:27:32;;;;;;;0.93;0.93;;;;;;;9.18;69.33;99331.34;5087295;28;20130;-59
2021/09/16 07:29:57;;;;;;;1.60;1.50;;;;;;;9.08;68.79;99318.66;5069278;28;20135;-59
2021/09/16 07:32:23;;;;;;;0.98;0.98;;;;;;;9.15;68.94;99318.56;5089009;28;20044;-59
2021/09/16 07:34:49;;;;;;;5.00;1.10;;;;;;;9.28;68.91;99317.53;5088736;28;20067;-59
2021/09/16 07:37:16;;;;;;;1.20;1.00;;;;;;;9.19;69.19;99330.28;5071801;28;20097;-59
2021/09/16 07:39:42;;;;;;;1.55;1.17;;;;;;;9.35;69.18;99323.50;5091125;28;20044;-59
2021/09/16 07:42:08;;;;;;;2.10;1.15;;;;;;;9.46;68.13;99319.25;5089137;28;20067;-61
2021/09/16 07:44:34;;;;;;;0.82;0.82;;;;;;;9.44;67.54;99319.50;5087732;28;20398;-60
2021/09/16 07:47:00;;;;;;;2.03;0.90;;;;;;;9.36;68.48;99334.91;5089694;28;20044;-59
2021/09/16 07:49:26;;;;;;;2.40;1.10;;;;;;;9.46;69.23;99327.97;5090761;28;20130;-59
2021/09/16 07:51:52;;;;;;;4.18;1.55;;;;;;;9.30;69.95;99337.44;5086815;28;20043;-58
2021/09/16 07:54:18;;;;;;;1.90;1.25;;;;;;;9.17;70.91;99340.28;5089205;28;20161;-58
2021/09/16 07:56:43;;;;;;;3.65;1.30;;;;;;;9.10;71.69;99347.53;5088993;28;20040;-59
2021/09/16 07:59:09;;;;;;;1.83;1.30;;;;;;;9.16;71.48;99346.63;5088666;28;20141;-60
2021/09/16 08:01:36;;;;;;;1.35;1.17;;;;;;;9.13;67.84;99355.00;5087219;28;20048;-60
2021/09/16 08:04:03;;;;;;;0.95;0.90;;;;;;;9.14;68.43;99343.38;5087445;28;20127;-58
2021/09/16 08:06:29;;;;;;;1.63;1.10;;;;;;;9.10;69.30;99342.25;5079258;28;20735;-59
2021/09/16 08:08:55;;;;;;;2.33;1.15;;;;;;;9.30;67.64;99344.56;5073915;28;20068;-57
2021/09/16 08:11:21;;;;;;;2.03;1.08;;;;;;;9.38;67.02;99344.19;5067129;28;20040;-61
2021/09/16 08:13:46;;;;;;;1.38;1.27;;;;;;;9.59;65.88;99347.28;5066673;28;20118;-60
2021/09/16 08:16:12;;;;;;;2.05;1.00;;;;;;;9.72;65.98;99350.50;5067350;28;20155;-60
2021/09/16 08:18:38;;;;;;;2.17;1.40;;;;;;;9.94;63.50;99347.22;5067629;28;20553;-59
2021/09/16 08:21:04;;;;;;;2.08;1.33;;;;;;;10.02;62.96;99342.38;5069339;28;20044;-61
2021/09/16 08:23:30;;;;;;;1.17;1.08;;;;;;;10.04;63.38;99346.66;5067912;28;20041;-60
2021/09/16 08:25:56;;;;;;;2.17;1.20;;;;;;;10.11;63.06;99347.31;5049155;28;20102;-59
2021/09/16 08:28:21;;;;;;;3.30;1.20;;;;;;;10.20;63.36;99348.53;5068710;28;20044;-60
2021/09/16 08:30:48;;;;;;;2.42;1.30;;;;;;;10.44;62.66;99346.63;5065243;28;20051;-59
2021/09/16 08:33:14;;;;;;;2.38;1.30;;;;;;;10.81;60.69;99352.34;5066477;28;20139;-58
2021/09/16 08:35:40;;;;;;;1.23;1.10;;;;;;;11.04;59.15;99353.25;5068855;28;20093;-59
2021/09/16 08:38:06;;;;;;;1.10;1.00;;;;;;;11.29;57.42;99347.50;5069606;28;20197;-59
2021/09/16 08:40:33;;;;;;;2.15;1.10;;;;;;;11.29;56.91;99352.81;5068313;28;20549;-58
2021/09/16 08:42:59;;;;;;;2.80;1.02;;;;;;;11.23;57.25;99349.28;5068382;28;20047;-59
2021/09/16 08:45:25;;;;;;;1.95;1.10;;;;;;;11.22;57.56;99347.69;5066447;28;20083;-58
2021/09/16 08:47:52;;;;;;;3.33;1.75;;;;;;;11.07;57.61;99350.91;5067375;28;20064;-60
2021/09/16 08:50:22;;;;;;;2.20;1.40;;;;;;;11.16;58.16;99353.16;5069093;28;20051;-58
2021/09/16 08:52:49;;;;;;;0.90;0.90;;;;;;;11.00;57.89;99354.75;5067253;28;20417;-60
2021/09/16 08:55:17;;;;;;;4.35;1.30;;;;;;;10.93;57.78;99346.97;5067497;28;20482;-59
2021/09/16 08:57:45;;;;;;;2.35;1.25;;;;;;;10.96;57.92;99351.00;5066873;28;20049;-59
2021/09/16 09:00:12;;;;;;;1.42;1.20;;;;;;;10.94;57.20;99353.06;5061853;28;20044;-60
2021/09/16 09:02:39;;;;;;;1.30;1.17;;;;;;;11.09;56.60;99350.69;5067468;28;20072;-59
2021/09/16 09:05:07;;;;;;;1.15;1.00;;;;;;;11.25;55.96;99341.09;5064693;28;20051;-60
2021/09/16 09:07:41;;;;;;;2.15;1.20;;;;;;;11.29;56.38;99344.88;5064403;28;20401;-58
2021/09/16 09:10:09;;;;;;;3.35;1.15;;;;;;;11.46;56.38;99353.59;5067703;28;20498;-56
2021/09/16 09:12:37;;;;;;;1.55;1.20;;;;;;;11.44;55.46;99350.41;5052027;28;20135;-60
2021/09/16 09:15:05;;;;;;;2.05;1.20;;;;;;;11.39;55.12;99352.19;5068236;28;20064;-60
2021/09/16 09:17:34;;;;;;;1.77;1.38;;;;;;;11.27;54.91;99354.94;5068149;28;20053;-60
2021/09/16 09:20:08;;;;;;;2.58;1.00;;;;;;;11.12;55.77;99345.69;5068194;28;20474;-60
2021/09/16 09:22:37;;;;;;;2.80;1.27;;;;;;;11.04;55.20;99356.69;5066884;28;20048;-60
2021/09/16 09:25:05;;;;;;;1.70;1.13;;;;;;;10.90;55.19;99350.09;5068743;28;20048;-60
2021/09/16 09:27:34;;;;;;;1.17;1.08;;;;;;;10.82;56.41;99359.25;5067274;28;20051;-57
2021/09/16 09:30:12;;;;;;;0.90;0.90;;;;;;;10.75;56.26;99357.81;5066174;28;20122;-59
2021/09/16 09:32:50;;;;;;;12.90;2.22;;;;;;;10.80;57.22;99363.19;5067412;28;20052;-61
2021/09/16 09:35:36;;;;;;;1.40;1.20;;;;;;;10.89;56.86;99365.22;5066335;28;20048;-59
2021/09/16 09:38:17;;;;;;;1.88;1.25;;;;;;;10.87;56.93;99361.97;5066893;28;20044;-59
2021/09/16 09:40:45;;;;;;;2.22;1.40;;;;;;;10.98;57.11;99357.66;5069077;28;20045;-59
2021/09/16 09:43:24;;;;;;;1.60;1.48;;;;;;;11.07;57.10;99361.53;5071788;28;20044;-59
2021/09/16 09:46:00;;;;;;;3.10;1.60;;;;;;;11.26;57.90;99358.63;5070042;28;20040;-58
2021/09/16 09:48:26;;;;;;;2.78;1.50;;;;;;;11.48;56.33;99362.13;5072300;28;20533;-59
2021/09/16 09:50:53;;;;;;;3.22;1.85;;;;;;;11.49;55.67;99361.09;5071602;28;20055;-57
2021/09/16 09:53:19;;;;;;;3.10;2.03;;;;;;;11.49;55.94;99365.59;5072120;28;20036;-59
2021/09/16 09:55:45;;;;;;;2.35;1.90;;;;;;;11.46;56.67;99364.22;5071879;28;20420;-60
2021/09/16 09:58:11;;;;;;;2.50;1.70;;;;;;;11.67;56.08;99362.66;5068903;28;20052;-59
2021/09/16 10:00:37;;;;;;;2.35;1.50;;;;;;;11.71;55.20;99369.09;5070807;28;20047;-59
2021/09/16 10:03:04;;;;;;;4.20;1.83;;;;;;;11.70;55.40;99369.34;5070035;28;20271;-59
2021/09/16 10:05:35;;;;;;;2.10;1.60;;;;;;;11.80;54.77;99374.81;5070201;28;20494;-60
2021/09/16 10:08:04;;;;;;;4.05;1.70;;;;;;;11.94;54.31;99372.59;5069615;28;20074;-57
2021/09/16 10:10:34;;;;;;;2.33;1.70;;;;;;;11.77;54.77;99383.25;5072024;28;20044;-60
2021/09/16 10:13:00;;;;;;;3.08;1.45;;;;;;;11.62;55.07;99381.19;5069620;28;20069;-63
2021/09/16 10:15:26;;;;;;;3.25;2.00;;;;;;;11.72;55.09;99377.88;5068628;28;20137;-60
2021/09/16 10:17:53;;;;;;;2.10;1.58;;;;;;;11.71;55.79;99381.59;5068459;28;20052;-59
2021/09/16 10:20:21;;;;;;;2.42;1.60;;;;;;;11.83;54.37;99380.41;5068393;28;20047;-59
2021/09/16 10:22:49;;;;;;;2.20;1.55;;;;;;;11.89;54.17;99383.19;5068863;28;20056;-60
2021/09/16 10:25:20;;;;;;;2.33;1.30;;;;;;;11.96;52.42;99379.28;5067954;28;20139;-60
2021/09/16 10:27:48;;;;;;;3.42;1.42;;;;;;;12.03;51.74;99379.13;5066404;28;20044;-58
2021/09/16 10:30:23;;;;;;;1.90;1.10;;;;;;;12.09;50.01;99374.63;5072250;28;20044;-60
2021/09/16 10:33:05;;;;;;;3.10;1.23;;;;;;;12.24;50.91;99378.31;5078464;28;20047;-59
2021/09/16 10:35:32;;;;;;;4.68;1.13;;;;;;;12.50;50.44;99373.28;5079619;28;20047;-59
2021/09/16 10:38:29;;;;;;;2.40;1.20;;;;;;;12.48;48.68;99376.16;5072426;28;20048;-59
2021/09/16 10:41:15;;;;;;;1.50;1.40;;;;;;;12.32;49.24;99366.41;5070423;28;20044;-60
2021/09/16 10:43:42;;;;;;;2.53;1.42;;;;;;;12.27;49.43;99369.81;5067065;28;20044;-59
2021/09/16 10:46:41;;;;;;;2.08;1.20;;;;;;;12.35;49.07;99373.09;5068875;28;20056;-60
2021/09/16 10:49:19;;;;;;;2.63;1.70;;;;;;;12.53;50.41;99361.31;5070993;28;20056;-58
2021/09/16 10:51:50;;;;;;;1.30;1.20;;;;;;;12.24;49.69;99362.34;5067452;28;20040;-59
2021/09/16 10:54:24;;;;;;;;;;;;;;;12.31;49.44;99362.16;5071847;28;20037;-57
2021/09/16 10:57:15;;;;;;;1.98;1.42;;;;;;;12.36;49.40;99370.19;5051551;28;20022;-62
2021/09/16 10:59:52;;;;;;;1.55;1.20;;;;;;;12.48;48.90;99372.72;5065488;28;20391;-59
2021/09/16 11:02:49;;;;;;;1.23;1.13;;;;;;;12.45;47.92;99371.34;5104239;27;20136;-60
2021/09/16 11:05:39;;;;;;;1.10;0.90;;;;;;;12.46;48.43;99378.25;5145001;27;20557;-59
2021/09/16 11:08:05;;;;;;;1.33;1.20;;;;;;;12.53;48.81;99379.91;5146715;27;20408;-59
2021/09/16 11:10:37;;;;;;;2.00;1.20;;;;;;;12.56;48.78;99377.59;5145994;27;20042;-60
2021/09/16 11:13:33;;;;;;;1.45;1.35;;;;;;;12.19;51.77;99399.50;5146730;27;20043;-58
2021/09/16 11:16:00;;;;;;;2.38;1.40;;;;;;;11.90;52.77;99388.22;5144456;27;20050;-58
2021/09/16 11:18:26;;;;;;;2.78;1.42;;;;;;;11.75;53.82;99393.31;5126355;27;20613;-60
2021/09/16 11:21:06;;;;;;;2.90;1.00;;;;;;;11.41;54.83;99390.69;5104955;27;20390;-60
2021/09/16 11:23:45;;;;;;;3.50;1.40;;;;;;;11.36;54.68;99390.63;5062891;28;20391;-58
2021/09/16 11:26:24;;;;;;;1.17;1.00;;;;;;;11.25;53.83;99399.47;5105458;27;20392;-59
2021/09/16 11:29:06;;;;;;;1.30;1.20;;;;;;;11.34;53.72;99390.84;5105545;27;20746;-60
2021/09/16 11:31:42;;;;;;;2.35;1.08;;;;;;;11.42;53.75;99388.88;5085529;27;20392;-57
2021/09/16 11:34:20;;;;;;;1.42;1.15;;;;;;;11.23;54.41;99389.09;5104561;27;20132;-60
2021/09/16 11:37:16;;;;;;;1.48;1.38;;;;;;;11.13;55.30;99392.38;5106117;27;20399;-57
2021/09/16 11:39:57;;;;;;;1.70;1.30;;;;;;;11.11;54.92;99388.38;5104912;27;20388;-60
2021/09/16 11:42:37;;;;;;;1.08;1.08;;;;;;;11.22;53.72;99384.84;5126174;27;20401;-59